Leonie — PHLE — position and weather

sailwx.info

Track history (hours):
 
Tides and Currents Weather Stations Pressure Air Temp Water Temp Dewpoint Dewpoint Depression Visibility Wind Speed Wind Dir Waves Ship Positions

Leonie

Last reported at 2016-May-16 19:24 UTC. Time now 2016-May-29 01:56 UTC.
Position N 40°32' W 009°06'.
Warning: this ship's position is 12 days out of date.

Length 90 m; draft 5.5 m.

Type: Cargo ship. MMSI: 244772000.

Date/timePositionNaut miles runAvg speedWind from/ knotsBaromVisibWave heightAir tempDewpointWater temp
2016-May-16 19:24N 40°32' W 009°06'51710.1
2016-May-14 16:23N 48°50' W 005°49'1011.1
2016-May-14 15:30N 48°56' W 005°38'9610.6
2016-May-14 06:25N 49°46' W 003°32'1011.6
2016-May-14 05:33N 49°51' W 003°18'1111.3
2016-May-14 04:33N 49°57' W 003°03'1110.7
2016-May-14 03:32N 50°01' W 002°47'9910.7
2016-May-13 18:17N 50°30' W 000°19'911.6
2016-May-13 17:31N 50°32' W 000°05'5511.0
2016-May-13 12:31N 50°57' E 001°12'1313.5
2016-May-13 11:33N 51°05' E 001°28'1313.4
2016-May-13 10:33N 51°14' E 001°44'1212.0
2016-May-13 09:33N 51°24' E 001°52'1110.6
2016-May-13 08:33N 51°33' E 002°02'10 9.9
2016-May-13 07:33N 51°40' E 002°13'9 9.1
2016-May-13 06:32N 51°47' E 002°24'9 9.1
2016-May-13 05:31N 51°54' E 002°33'10 9.7
2016-May-13 04:30N 52°01' E 002°44'1210.7
2016-May-13 03:23N 52°10' E 002°56'1011.5
2016-May-13 02:32N 52°18' E 003°06'1612.1
2016-May-13 01:13N 52°31' E 003°21'811.8
2016-May-13 00:33N 52°37' E 003°29'1211.4
2016-May-12 23:29N 52°47' E 003°41'1010.5
2016-May-12 22:33N 52°55' E 003°52'10 9.9
2016-May-12 21:33N 53°01' E 004°04'10 9.6
2016-May-12 20:33N 53°07' E 004°16'9 9.0
2016-May-12 19:33N 53°14' E 004°25'1010.0
2016-May-12 18:31N 53°24' E 004°33'1111.1
2016-May-12 17:33N 53°30' E 004°47'1212.0
2016-May-12 16:33N 53°34' E 005°06'1211.7
2016-May-12 15:33N 53°38' E 005°25'1111.2
2016-May-12 14:33N 53°41' E 005°43'1010.4
2016-May-12 13:33N 53°45' E 005°60'10 9.7
2016-May-12 12:33N 53°48' E 006°15'9 9.3
2016-May-12 11:33N 53°50' E 006°30'9 9.4
2016-May-12 10:33N 53°53' E 006°46'1010.1
2016-May-12 09:33N 53°55' E 007°02'1111.0
2016-May-12 08:33N 53°58' E 007°20'1111.4
2016-May-12 07:33N 54°01' E 007°39'1211.6
2016-May-12 06:33N 54°02' E 007°59'1212.1
2016-May-12 05:33N 54°00' E 008°19'1211.7
2016-May-12 04:33N 53°57' E 008°39'9 8.7
2016-May-12 03:33N 53°51' E 008°48'8 7.9
2016-May-12 02:34N 53°52' E 009°01'5 4.9
2016-May-12 01:33N 53°54' E 009°09'0 0.3
2016-May-12 00:34N 53°54' E 009°09'0 0.0
2016-May-11 23:34N 53°54' E 009°09'8 7.5
2016-May-11 22:33N 53°60' E 009°17'26 7.7
2016-May-11 19:12N 54°20' E 009°44'5 7.8
2016-May-11 18:33N 54°21' E 009°53'7 7.1
2016-May-11 17:33N 54°22' E 010°05'3 3.2
2016-May-11 16:33N 54°22' E 010°10'10 9.7
2016-May-11 15:33N 54°30' E 010°20'1212.0
2016-May-11 14:33N 54°35' E 010°39'1212.1
2016-May-11 13:33N 54°36' E 010°60'1211.9
2016-May-11 12:33N 54°33' E 011°20'1211.8
2016-May-11 11:33N 54°30' E 011°39'1211.6
2016-May-11 10:33N 54°27' E 011°59'1010.1
2016-May-11 09:33N 54°33' E 012°13'1111.2
2016-May-11 08:33N 54°41' E 012°26'1211.6
2016-May-11 07:33N 54°48' E 012°42'1211.6
2016-May-11 06:33N 54°51' E 013°01'1211.7
2016-May-11 05:33N 54°55' E 013°20'1111.3
2016-May-11 04:33N 54°59' E 013°39'1111.2
2016-May-11 03:33N 55°04' E 013°57'1111.0
2016-May-11 02:33N 55°10' E 014°13'1211.8
2016-May-11 01:33N 55°20' E 014°24'1111.4
2016-May-11 00:33N 55°27' E 014°39'1111.4
2016-May-10 23:33N 55°34' E 014°56'1111.4
2016-May-10 22:33N 55°39' E 015°13'1211.7
2016-May-10 21:33N 55°45' E 015°31'1711.7
2016-May-10 20:07N 55°54' E 015°57'86 7.9
2016-May-10 09:08N 57°16' E 016°46'711.4
2016-May-10 08:33N 57°11' E 016°38'6 5.8
2016-May-10 07:32N 57°06' E 016°33'0 0.0
2016-May-10 06:22N 57°06' E 016°33'0 0.0
2016-May-10 04:04N 57°06' E 016°33'0 0.0
2016-May-10 03:31N 57°06' E 016°33'0 0.0
2016-May-10 02:28N 57°06' E 016°33'0 0.0
2016-May-10 01:31N 57°06' E 016°33'0 0.0
2016-May-10 00:31N 57°06' E 016°33'0 0.0
2016-May-09 23:31N 57°06' E 016°33'0 0.0
2016-May-09 22:31N 57°06' E 016°33'0 0.0
2016-May-09 21:31N 57°06' E 016°33'0 0.0
2016-May-09 20:31N 57°06' E 016°33'0 0.0
2016-May-09 19:31N 57°06' E 016°33'0 0.0
2016-May-09 18:31N 57°06' E 016°33'0 0.0
2016-May-09 17:10N 57°06' E 016°33'0 0.0
2016-May-09 16:31N 57°06' E 016°33'0 0.0
2016-May-09 15:31N 57°06' E 016°33'0 0.0
2016-May-09 13:28N 57°06' E 016°33'0 0.0
2016-May-09 12:28N 57°06' E 016°33'0 0.0
2016-May-09 11:16N 57°06' E 016°33'0 0.0
2016-May-09 10:31N 57°06' E 016°33'0 0.0
2016-May-09 09:28N 57°06' E 016°33'0 0.0
2016-May-09 08:28N 57°06' E 016°33'2 1.7
2016-May-09 07:33N 57°07' E 016°33'9 8.9
2016-May-09 06:33N 57°16' E 016°35'3 3.2
2016-May-09 05:32N 57°16' E 016°29'0 0.0
2016-May-09 04:32N 57°16' E 016°29'0 0.0
2016-May-09 03:32N 57°16' E 016°29'0 0.0
2016-May-09 02:32N 57°16' E 016°29'0 0.0
2016-May-09 01:32N 57°16' E 016°29'0 0.0
2016-May-09 00:32N 57°16' E 016°29'0 0.0
2016-May-08 23:32N 57°16' E 016°29'0 0.0
2016-May-08 22:32N 57°16' E 016°29'0 0.0
2016-May-08 21:32N 57°16' E 016°29'0 0.0
2016-May-08 20:32N 57°16' E 016°29'0 0.0
2016-May-08 19:32N 57°16' E 016°29'0 0.0
2016-May-08 18:32N 57°16' E 016°29'0 0.0
2016-May-08 17:32N 57°16' E 016°29'0 0.0
2016-May-08 16:32N 57°16' E 016°29'0 0.0
2016-May-08 15:32N 57°16' E 016°29'0 0.0
2016-May-08 14:32N 57°16' E 016°29'0 0.0
2016-May-08 13:32N 57°16' E 016°29'0 0.0
2016-May-08 12:32N 57°16' E 016°29'0 0.0
2016-May-08 11:32N 57°16' E 016°29'0 0.0
2016-May-08 10:32N 57°16' E 016°29'0 0.0
2016-May-08 09:32N 57°16' E 016°29'0 0.0
2016-May-08 08:32N 57°16' E 016°29'0 0.0
2016-May-08 07:32N 57°16' E 016°29'0 0.0
2016-May-08 06:32N 57°16' E 016°29'0 0.0
2016-May-08 05:32N 57°16' E 016°29'0 0.0
2016-May-08 04:32N 57°16' E 016°29'0 0.0
2016-May-08 03:32N 57°16' E 016°29'0 0.0
2016-May-08 02:32N 57°16' E 016°29'0 0.0
2016-May-08 01:32N 57°16' E 016°29'0 0.0
2016-May-08 00:32N 57°16' E 016°29'0 0.0
2016-May-07 23:32N 57°16' E 016°29'0 0.0
2016-May-07 22:32N 57°16' E 016°29'0 0.0
2016-May-07 21:32N 57°16' E 016°29'0 0.0
2016-May-07 20:32N 57°16' E 016°29'0 0.0
2016-May-07 19:32N 57°16' E 016°29'0 0.0
2016-May-07 18:32N 57°16' E 016°29'0 0.0
2016-May-07 17:32N 57°16' E 016°29'0 0.0
2016-May-07 16:32N 57°16' E 016°29'0 0.0
2016-May-07 15:32N 57°16' E 016°29'0 0.0
2016-May-07 14:32N 57°16' E 016°29'0 0.0
2016-May-07 13:32N 57°16' E 016°29'0 0.0
2016-May-07 12:32N 57°16' E 016°29'0 0.0
2016-May-07 11:32N 57°16' E 016°29'0 0.0
2016-May-07 10:32N 57°16' E 016°29'0 0.0
2016-May-07 09:32N 57°16' E 016°29'0 0.0
2016-May-07 08:32N 57°16' E 016°29'0 0.0
2016-May-07 07:32N 57°16' E 016°29'0 0.0
2016-May-07 06:32N 57°16' E 016°29'0 0.0
2016-May-07 05:32N 57°16' E 016°29'0 0.0
2016-May-07 04:32N 57°16' E 016°29'0 0.0
2016-May-07 03:32N 57°16' E 016°29'0 0.0
2016-May-07 02:32N 57°16' E 016°29'0 0.0
2016-May-07 01:32N 57°16' E 016°29'0 0.0
2016-May-07 00:32N 57°16' E 016°29'0 0.0
2016-May-06 23:32N 57°16' E 016°29'0 0.0
2016-May-06 22:32N 57°16' E 016°29'0 0.0
2016-May-06 21:32N 57°16' E 016°29'0 0.0
2016-May-06 20:32N 57°16' E 016°29'0 0.0
2016-May-06 19:32N 57°16' E 016°29'  
Track history (hours):
 
Tides and Currents Weather Stations Pressure Air Temp Water Temp Dewpoint Dewpoint Depression Visibility Wind Speed Wind Dir Waves Ship Positions

Leonie

Last reported at 2016-May-16 19:24 UTC. Time now 2016-May-29 01:56 UTC.
Position N 40°32' W 009°06'.
Warning: this ship's position is 12 days out of date.

Length 90 m; draft 5.5 m.

Type: Cargo ship. MMSI: 244772000.

Date/timePositionNaut miles runAvg speedWind from/ knotsBaromVisibWave heightAir tempDewpointWater temp
2016-May-16 19:24N 40°32' W 009°06'51710.1
2016-May-14 16:23N 48°50' W 005°49'1011.1
2016-May-14 15:30N 48°56' W 005°38'9610.6
2016-May-14 06:25N 49°46' W 003°32'1011.6
2016-May-14 05:33N 49°51' W 003°18'1111.3
2016-May-14 04:33N 49°57' W 003°03'1110.7
2016-May-14 03:32N 50°01' W 002°47'9910.7
2016-May-13 18:17N 50°30' W 000°19'911.6
2016-May-13 17:31N 50°32' W 000°05'5511.0
2016-May-13 12:31N 50°57' E 001°12'1313.5
2016-May-13 11:33N 51°05' E 001°28'1313.4
2016-May-13 10:33N 51°14' E 001°44'1212.0
2016-May-13 09:33N 51°24' E 001°52'1110.6
2016-May-13 08:33N 51°33' E 002°02'10 9.9
2016-May-13 07:33N 51°40' E 002°13'9 9.1
2016-May-13 06:32N 51°47' E 002°24'9 9.1
2016-May-13 05:31N 51°54' E 002°33'10 9.7
2016-May-13 04:30N 52°01' E 002°44'1210.7
2016-May-13 03:23N 52°10' E 002°56'1011.5
2016-May-13 02:32N 52°18' E 003°06'1612.1
2016-May-13 01:13N 52°31' E 003°21'811.8
2016-May-13 00:33N 52°37' E 003°29'1211.4
2016-May-12 23:29N 52°47' E 003°41'1010.5
2016-May-12 22:33N 52°55' E 003°52'10 9.9
2016-May-12 21:33N 53°01' E 004°04'10 9.6
2016-May-12 20:33N 53°07' E 004°16'9 9.0
2016-May-12 19:33N 53°14' E 004°25'1010.0
2016-May-12 18:31N 53°24' E 004°33'1111.1
2016-May-12 17:33N 53°30' E 004°47'1212.0
2016-May-12 16:33N 53°34' E 005°06'1211.7
2016-May-12 15:33N 53°38' E 005°25'1111.2
2016-May-12 14:33N 53°41' E 005°43'1010.4
2016-May-12 13:33N 53°45' E 005°60'10 9.7
2016-May-12 12:33N 53°48' E 006°15'9 9.3
2016-May-12 11:33N 53°50' E 006°30'9 9.4
2016-May-12 10:33N 53°53' E 006°46'1010.1
2016-May-12 09:33N 53°55' E 007°02'1111.0
2016-May-12 08:33N 53°58' E 007°20'1111.4
2016-May-12 07:33N 54°01' E 007°39'1211.6
2016-May-12 06:33N 54°02' E 007°59'1212.1
2016-May-12 05:33N 54°00' E 008°19'1211.7
2016-May-12 04:33N 53°57' E 008°39'9 8.7
2016-May-12 03:33N 53°51' E 008°48'8 7.9
2016-May-12 02:34N 53°52' E 009°01'5 4.9
2016-May-12 01:33N 53°54' E 009°09'0 0.3
2016-May-12 00:34N 53°54' E 009°09'0 0.0
2016-May-11 23:34N 53°54' E 009°09'8 7.5
2016-May-11 22:33N 53°60' E 009°17'26 7.7
2016-May-11 19:12N 54°20' E 009°44'5 7.8
2016-May-11 18:33N 54°21' E 009°53'7 7.1
2016-May-11 17:33N 54°22' E 010°05'3 3.2
2016-May-11 16:33N 54°22' E 010°10'10 9.7
2016-May-11 15:33N 54°30' E 010°20'1212.0
2016-May-11 14:33N 54°35' E 010°39'1212.1
2016-May-11 13:33N 54°36' E 010°60'1211.9
2016-May-11 12:33N 54°33' E 011°20'1211.8
2016-May-11 11:33N 54°30' E 011°39'1211.6
2016-May-11 10:33N 54°27' E 011°59'1010.1
2016-May-11 09:33N 54°33' E 012°13'1111.2
2016-May-11 08:33N 54°41' E 012°26'1211.6
2016-May-11 07:33N 54°48' E 012°42'1211.6
2016-May-11 06:33N 54°51' E 013°01'1211.7
2016-May-11 05:33N 54°55' E 013°20'1111.3
2016-May-11 04:33N 54°59' E 013°39'1111.2
2016-May-11 03:33N 55°04' E 013°57'1111.0
2016-May-11 02:33N 55°10' E 014°13'1211.8
2016-May-11 01:33N 55°20' E 014°24'1111.4
2016-May-11 00:33N 55°27' E 014°39'1111.4
2016-May-10 23:33N 55°34' E 014°56'1111.4
2016-May-10 22:33N 55°39' E 015°13'1211.7
2016-May-10 21:33N 55°45' E 015°31'1711.7
2016-May-10 20:07N 55°54' E 015°57'86 7.9
2016-May-10 09:08N 57°16' E 016°46'711.4
2016-May-10 08:33N 57°11' E 016°38'6 5.8
2016-May-10 07:32N 57°06' E 016°33'0 0.0
2016-May-10 06:22N 57°06' E 016°33'0 0.0
2016-May-10 04:04N 57°06' E 016°33'0 0.0
2016-May-10 03:31N 57°06' E 016°33'0 0.0
2016-May-10 02:28N 57°06' E 016°33'0 0.0
2016-May-10 01:31N 57°06' E 016°33'0 0.0
2016-May-10 00:31N 57°06' E 016°33'0 0.0
2016-May-09 23:31N 57°06' E 016°33'0 0.0
2016-May-09 22:31N 57°06' E 016°33'0 0.0
2016-May-09 21:31N 57°06' E 016°33'0 0.0
2016-May-09 20:31N 57°06' E 016°33'0 0.0
2016-May-09 19:31N 57°06' E 016°33'0 0.0
2016-May-09 18:31N 57°06' E 016°33'0 0.0
2016-May-09 17:10N 57°06' E 016°33'0 0.0
2016-May-09 16:31N 57°06' E 016°33'0 0.0
2016-May-09 15:31N 57°06' E 016°33'0 0.0
2016-May-09 13:28N 57°06' E 016°33'0 0.0
2016-May-09 12:28N 57°06' E 016°33'0 0.0
2016-May-09 11:16N 57°06' E 016°33'0 0.0
2016-May-09 10:31N 57°06' E 016°33'0 0.0
2016-May-09 09:28N 57°06' E 016°33'0 0.0
2016-May-09 08:28N 57°06' E 016°33'2 1.7
2016-May-09 07:33N 57°07' E 016°33'9 8.9
2016-May-09 06:33N 57°16' E 016°35'3 3.2
2016-May-09 05:32N 57°16' E 016°29'0 0.0
2016-May-09 04:32N 57°16' E 016°29'0 0.0
2016-May-09 03:32N 57°16' E 016°29'0 0.0
2016-May-09 02:32N 57°16' E 016°29'0 0.0
2016-May-09 01:32N 57°16' E 016°29'0 0.0
2016-May-09 00:32N 57°16' E 016°29'0 0.0
2016-May-08 23:32N 57°16' E 016°29'0 0.0
2016-May-08 22:32N 57°16' E 016°29'0 0.0
2016-May-08 21:32N 57°16' E 016°29'0 0.0
2016-May-08 20:32N 57°16' E 016°29'0 0.0
2016-May-08 19:32N 57°16' E 016°29'0 0.0
2016-May-08 18:32N 57°16' E 016°29'0 0.0
2016-May-08 17:32N 57°16' E 016°29'0 0.0
2016-May-08 16:32N 57°16' E 016°29'0 0.0
2016-May-08 15:32N 57°16' E 016°29'0 0.0
2016-May-08 14:32N 57°16' E 016°29'0 0.0
2016-May-08 13:32N 57°16' E 016°29'0 0.0
2016-May-08 12:32N 57°16' E 016°29'0 0.0
2016-May-08 11:32N 57°16' E 016°29'0 0.0
2016-May-08 10:32N 57°16' E 016°29'0 0.0
2016-May-08 09:32N 57°16' E 016°29'0 0.0
2016-May-08 08:32N 57°16' E 016°29'0 0.0
2016-May-08 07:32N 57°16' E 016°29'0 0.0
2016-May-08 06:32N 57°16' E 016°29'0 0.0
2016-May-08 05:32N 57°16' E 016°29'0 0.0
2016-May-08 04:32N 57°16' E 016°29'0 0.0
2016-May-08 03:32N 57°16' E 016°29'0 0.0
2016-May-08 02:32N 57°16' E 016°29'0 0.0
2016-May-08 01:32N 57°16' E 016°29'0 0.0
2016-May-08 00:32N 57°16' E 016°29'0 0.0
2016-May-07 23:32N 57°16' E 016°29'0 0.0
2016-May-07 22:32N 57°16' E 016°29'0 0.0
2016-May-07 21:32N 57°16' E 016°29'0 0.0
2016-May-07 20:32N 57°16' E 016°29'0 0.0
2016-May-07 19:32N 57°16' E 016°29'0 0.0
2016-May-07 18:32N 57°16' E 016°29'0 0.0
2016-May-07 17:32N 57°16' E 016°29'0 0.0
2016-May-07 16:32N 57°16' E 016°29'0 0.0
2016-May-07 15:32N 57°16' E 016°29'0 0.0
2016-May-07 14:32N 57°16' E 016°29'0 0.0
2016-May-07 13:32N 57°16' E 016°29'0 0.0
2016-May-07 12:32N 57°16' E 016°29'0 0.0
2016-May-07 11:32N 57°16' E 016°29'0 0.0
2016-May-07 10:32N 57°16' E 016°29'0 0.0
2016-May-07 09:32N 57°16' E 016°29'0 0.0
2016-May-07 08:32N 57°16' E 016°29'0 0.0
2016-May-07 07:32N 57°16' E 016°29'0 0.0
2016-May-07 06:32N 57°16' E 016°29'0 0.0
2016-May-07 05:32N 57°16' E 016°29'0 0.0
2016-May-07 04:32N 57°16' E 016°29'0 0.0
2016-May-07 03:32N 57°16' E 016°29'0 0.0
2016-May-07 02:32N 57°16' E 016°29'0 0.0
2016-May-07 01:32N 57°16' E 016°29'0 0.0
2016-May-07 00:32N 57°16' E 016°29'0 0.0
2016-May-06 23:32N 57°16' E 016°29'0 0.0
2016-May-06 22:32N 57°16' E 016°29'0 0.0
2016-May-06 21:32N 57°16' E 016°29'0 0.0
2016-May-06 20:32N 57°16' E 016°29'0 0.0
2016-May-06 19:32N 57°16' E 016°29'  

Dump ship's entire track history